createdAt,value
2018-01-19T00:02:02.508Z,2.47
2018-01-19T00:04:30.923Z,2.70
2018-01-19T00:06:59.371Z,2.13
2018-01-19T00:09:27.788Z,2.90
2018-01-19T00:11:56.206Z,2.60
2018-01-19T00:14:24.643Z,2.73
2018-01-19T00:16:53.157Z,3.20
2018-01-19T00:19:21.636Z,2.53
2018-01-19T00:21:50.115Z,2.77
2018-01-19T00:24:18.930Z,2.20
2018-01-19T00:26:47.289Z,2.87
2018-01-19T00:29:16.433Z,2.00
2018-01-19T00:31:44.878Z,4.20
2018-01-19T00:34:13.236Z,2.80
2018-01-19T00:36:42.376Z,2.40
2018-01-19T00:39:10.739Z,3.20
2018-01-19T00:41:39.172Z,3.30
2018-01-19T00:44:07.596Z,2.77
2018-01-19T00:46:36.011Z,2.60
2018-01-19T00:49:04.439Z,3.17
2018-01-19T00:51:32.890Z,3.57
2018-01-19T00:54:01.267Z,4.60
2018-01-19T00:56:29.686Z,3.43
2018-01-19T00:58:58.117Z,2.90
2018-01-19T01:01:26.568Z,2.83
2018-01-19T01:03:55.026Z,2.87
2018-01-19T01:06:23.533Z,2.83
2018-01-19T01:08:51.878Z,2.90
2018-01-19T01:11:20.373Z,2.70
2018-01-19T01:13:48.923Z,3.30
2018-01-19T01:16:18.162Z,2.80
2018-01-19T01:18:46.599Z,2.70
2018-01-19T01:21:15.793Z,3.20
2018-01-19T01:23:44.983Z,2.33
2018-01-19T01:26:13.442Z,2.80
2018-01-19T01:28:42.116Z,3.00
2018-01-19T01:31:10.535Z,3.90
2018-01-19T01:33:39.839Z,3.70
2018-01-19T01:36:09.025Z,3.90
2018-01-19T01:38:37.459Z,3.70
2018-01-19T01:41:05.903Z,3.40
2018-01-19T01:43:35.141Z,3.47
2018-01-19T01:46:03.602Z,4.20
2018-01-19T01:48:32.031Z,2.73
2018-01-19T01:51:00.483Z,3.73
2018-01-19T01:53:28.897Z,3.93
2018-01-19T01:55:57.307Z,3.83
2018-01-19T01:58:26.437Z,3.60
2018-01-19T02:00:55.006Z,4.97
2018-01-19T02:03:23.360Z,5.07
2018-01-19T02:05:52.488Z,5.17
2018-01-19T02:08:20.936Z,4.53
2018-01-19T02:10:50.075Z,4.83
2018-01-19T02:13:18.440Z,5.13
2018-01-19T02:15:46.907Z,4.87
2018-01-19T02:18:15.273Z,5.50
2018-01-19T02:20:44.494Z,4.43
2018-01-19T02:23:13.690Z,4.53
2018-01-19T02:25:42.128Z,5.10
2018-01-19T02:28:11.372Z,4.90
2018-01-19T02:30:39.743Z,5.30
2018-01-19T02:33:08.143Z,5.17
2018-01-19T02:35:36.512Z,5.13
2018-01-19T02:38:04.921Z,5.93
2018-01-19T02:40:33.366Z,5.30
2018-01-19T02:43:01.799Z,5.70
2018-01-19T02:45:30.949Z,6.27
2018-01-19T02:47:59.333Z,5.97
2018-01-19T02:50:27.691Z,5.80
2018-01-19T02:52:56.123Z,7.00
2018-01-19T02:55:24.675Z,7.00
2018-01-19T02:57:53.320Z,6.47
2018-01-19T03:00:22.514Z,6.03
2018-01-19T03:02:50.909Z,5.70
2018-01-19T03:05:19.272Z,7.00
2018-01-19T03:07:48.458Z,6.37
2018-01-19T03:10:17.791Z,5.80
2018-01-19T03:12:46.235Z,7.77
2018-01-19T03:15:15.551Z,5.57
2018-01-19T03:17:43.932Z,5.37
2018-01-19T03:20:12.397Z,6.80
2018-01-19T03:22:41.551Z,6.60
2018-01-19T03:25:09.922Z,5.70
2018-01-19T03:27:38.342Z,6.40
2018-01-19T03:30:06.806Z,6.20
2018-01-19T03:32:35.185Z,6.43
2018-01-19T03:35:03.574Z,6.03
2018-01-19T03:37:31.995Z,6.50
2018-01-19T03:40:00.399Z,6.57
2018-01-19T03:42:28.816Z,7.23
2018-01-19T03:44:58.081Z,6.57
2018-01-19T03:47:26.556Z,6.70
2018-01-19T03:49:55.116Z,6.57
2018-01-19T03:52:23.571Z,6.30
2018-01-19T03:54:52.808Z,6.37
2018-01-19T03:57:21.216Z,6.90
2018-01-19T03:59:49.636Z,8.57
2018-01-19T04:02:18.037Z,8.53
2018-01-19T04:04:46.389Z,6.83
2018-01-19T04:07:15.734Z,7.87
2018-01-19T04:09:44.200Z,7.97
2018-01-19T04:12:12.584Z,8.67
2018-01-19T04:14:41.035Z,9.87
2018-01-19T04:17:09.451Z,9.63
2018-01-19T04:19:37.880Z,8.97
2018-01-19T04:22:07.016Z,10.73
2018-01-19T04:24:35.427Z,8.70
2018-01-19T04:27:03.837Z,8.93
2018-01-19T04:29:32.184Z,10.40
2018-01-19T04:32:00.532Z,9.90
2018-01-19T04:34:28.899Z,8.53
2018-01-19T04:36:57.273Z,9.37
2018-01-19T04:39:25.727Z,9.50
2018-01-19T04:41:54.923Z,9.20
2018-01-19T04:44:24.056Z,9.30
2018-01-19T04:46:52.499Z,9.00
2018-01-19T04:49:20.897Z,8.93
2018-01-19T04:51:49.346Z,8.80
2018-01-19T04:54:17.737Z,8.40
2018-01-19T04:56:46.152Z,8.60
2018-01-19T04:59:14.537Z,8.97
2018-01-19T05:01:43.090Z,8.97
2018-01-19T05:04:11.547Z,8.33
2018-01-19T05:06:40.775Z,8.50
2018-01-19T05:09:09.199Z,10.27
2018-01-19T05:11:37.642Z,9.37
2018-01-19T05:14:06.086Z,10.53
2018-01-19T05:16:35.321Z,9.10
2018-01-19T05:19:03.754Z,9.70
2018-01-19T05:21:32.217Z,9.10
2018-01-19T05:24:00.608Z,10.17
2018-01-19T05:26:29.039Z,8.27
2018-01-19T05:28:57.406Z,9.17
2018-01-19T05:31:25.990Z,9.17
2018-01-19T05:33:54.368Z,7.60
2018-01-19T05:36:23.490Z,9.00
2018-01-19T05:38:51.944Z,7.17
2018-01-19T05:41:20.327Z,8.10
2018-01-19T05:43:48.717Z,9.50
2018-01-19T05:46:17.090Z,8.40
2018-01-19T05:48:45.484Z,8.07
2018-01-19T05:51:13.982Z,8.10
2018-01-19T05:53:42.346Z,7.70
2018-01-19T05:56:10.798Z,7.60
2018-01-19T05:58:39.177Z,7.73
2018-01-19T06:01:07.619Z,7.53
2018-01-19T06:03:36.045Z,8.30
2018-01-19T06:06:04.459Z,8.10
2018-01-19T06:08:32.904Z,7.97
2018-01-19T06:11:01.313Z,7.40
2018-01-19T06:13:29.753Z,7.97
2018-01-19T06:15:58.120Z,8.00
2018-01-19T06:18:27.349Z,6.53
2018-01-19T06:20:56.502Z,7.40
2018-01-19T06:23:25.632Z,6.50
2018-01-19T06:25:54.084Z,5.50
2018-01-19T06:28:23.311Z,6.93
2018-01-19T06:30:51.735Z,7.13
2018-01-19T06:33:20.128Z,7.20
2018-01-19T06:35:48.539Z,7.90
2018-01-19T06:38:16.970Z,6.80
2018-01-19T06:40:45.355Z,7.03
2018-01-19T06:43:13.786Z,6.27
2018-01-19T06:45:42.145Z,6.60
2018-01-19T06:48:11.447Z,7.37
2018-01-19T06:50:39.833Z,6.30
2018-01-19T06:53:08.956Z,7.40
2018-01-19T06:55:37.349Z,7.13
2018-01-19T06:58:05.861Z,6.37
2018-01-19T07:00:34.997Z,7.23
2018-01-19T07:03:03.442Z,6.67
2018-01-19T07:05:32.590Z,6.40
2018-01-19T07:08:01.004Z,6.40
2018-01-19T07:10:29.436Z,6.83
2018-01-19T07:12:57.835Z,7.60
2018-01-19T07:15:26.283Z,7.13
2018-01-19T07:17:54.859Z,6.90
2018-01-19T07:20:23.343Z,6.63
2018-01-19T07:22:51.722Z,6.70
2018-01-19T07:25:20.116Z,6.70
2018-01-19T07:27:48.470Z,7.80
2018-01-19T07:30:17.676Z,6.90
2018-01-19T07:32:46.084Z,8.00
2018-01-19T07:35:14.507Z,7.50
2018-01-19T07:37:43.710Z,7.53
2018-01-19T07:40:12.928Z,7.70
2018-01-19T07:42:41.298Z,7.47
2018-01-19T07:45:10.472Z,7.77
2018-01-19T07:47:38.952Z,6.80
2018-01-19T07:50:07.312Z,8.53
2018-01-19T07:52:35.774Z,7.10
2018-01-19T07:55:04.225Z,7.80
2018-01-19T07:57:32.684Z,7.80
2018-01-19T08:00:01.818Z,7.30
2018-01-19T08:02:30.266Z,6.83
2018-01-19T08:04:59.460Z,7.57
2018-01-19T08:07:28.792Z,8.10
2018-01-19T08:09:57.196Z,8.03
2018-01-19T08:12:25.649Z,8.57
2018-01-19T08:14:54.092Z,8.20
2018-01-19T08:17:23.293Z,8.37
2018-01-19T08:19:52.442Z,7.90
2018-01-19T08:22:20.812Z,8.67
2018-01-19T08:24:49.214Z,8.20
2018-01-19T08:27:17.648Z,9.10
2018-01-19T08:29:46.106Z,8.73
2018-01-19T08:32:15.294Z,8.43
2018-01-19T08:34:43.663Z,9.83
2018-01-19T08:37:12.050Z,11.57
2018-01-19T08:39:40.501Z,9.00
2018-01-19T08:42:09.042Z,8.60
2018-01-19T08:44:37.492Z,7.77
2018-01-19T08:47:06.033Z,7.57
2018-01-19T08:49:34.586Z,7.23
2018-01-19T08:52:03.284Z,8.30
2018-01-19T08:54:31.746Z,7.60
2018-01-19T08:57:00.213Z,6.40
2018-01-19T08:59:29.447Z,7.67
2018-01-19T09:01:57.977Z,7.37
2018-01-19T09:04:26.413Z,7.70
2018-01-19T09:06:54.765Z,7.30
2018-01-19T09:09:23.895Z,7.90
2018-01-19T09:11:52.330Z,6.30
2018-01-19T09:14:21.569Z,4.53
2018-01-19T09:16:50.007Z,4.70
2018-01-19T09:19:19.199Z,3.30
2018-01-19T09:21:48.452Z,4.80
2018-01-19T09:24:16.932Z,5.40
2018-01-19T09:26:45.301Z,4.40
2018-01-19T09:29:13.753Z,3.90
2018-01-19T09:31:43.030Z,3.93
2018-01-19T09:34:12.251Z,4.97
2018-01-19T09:36:40.736Z,3.70
2018-01-19T09:39:09.145Z,3.50
2018-01-19T09:41:37.522Z,3.90
2018-01-19T09:44:05.908Z,4.53
2018-01-19T09:46:34.328Z,4.60
2018-01-19T09:49:03.541Z,5.50
2018-01-19T09:51:32.009Z,6.27
2018-01-19T09:54:01.212Z,7.33
2018-01-19T09:56:30.344Z,7.80
2018-01-19T09:58:58.731Z,7.83
2018-01-19T10:01:27.167Z,7.57
2018-01-19T10:03:56.454Z,7.70
2018-01-19T10:06:25.766Z,6.70
2018-01-19T10:08:54.951Z,7.00
2018-01-19T10:11:23.418Z,7.50
2018-01-19T10:13:51.794Z,7.10
2018-01-19T10:16:20.236Z,9.20
2018-01-19T10:18:48.628Z,9.37
2018-01-19T10:21:17.090Z,9.70
2018-01-19T10:23:45.798Z,10.00
2018-01-19T10:26:14.259Z,10.17
2018-01-19T10:28:42.655Z,8.20
2018-01-19T10:31:11.135Z,9.60
2018-01-19T10:33:39.513Z,9.37
2018-01-19T10:36:07.953Z,9.27
2018-01-19T10:38:37.263Z,8.77
2018-01-19T10:41:05.632Z,10.87
2018-01-19T10:43:34.823Z,9.47
2018-01-19T10:46:03.967Z,9.30
2018-01-19T10:48:32.344Z,9.30
2018-01-19T10:51:00.791Z,9.00
2018-01-19T10:53:29.247Z,8.77
2018-01-19T10:55:58.447Z,9.53
2018-01-19T10:58:27.602Z,10.03
2018-01-19T11:00:56.057Z,11.40
2018-01-19T11:03:24.423Z,11.93
2018-01-19T11:05:52.780Z,12.73
2018-01-19T11:08:21.314Z,13.50
2018-01-19T11:10:49.881Z,15.83
2018-01-19T11:13:18.239Z,16.37
2018-01-19T11:15:47.443Z,16.60
2018-01-19T11:18:15.868Z,16.90
2018-01-19T11:20:44.299Z,17.03
2018-01-19T11:23:12.843Z,17.33
2018-01-19T11:25:41.744Z,19.20
2018-01-19T11:28:10.948Z,21.47
2018-01-19T11:30:40.112Z,21.67
2018-01-19T11:33:08.474Z,20.70
2018-01-19T11:35:36.952Z,19.97
2018-01-19T11:38:05.352Z,17.30
2018-01-19T11:40:33.802Z,19.30
2018-01-19T11:43:02.168Z,19.43
2018-01-19T11:45:30.640Z,19.30
2018-01-19T11:47:59.768Z,19.40
2018-01-19T11:50:28.137Z,18.00
2018-01-19T11:52:56.516Z,19.03
2018-01-19T11:55:24.873Z,18.60
2018-01-19T11:57:54.024Z,20.20
2018-01-19T12:00:22.467Z,19.43
2018-01-19T12:02:50.900Z,18.07
2018-01-19T12:05:19.326Z,19.93
2018-01-19T12:07:47.765Z,17.27
2018-01-19T12:10:17.005Z,18.60
2018-01-19T12:12:45.365Z,16.53
2018-01-19T12:15:14.621Z,14.70
2018-01-19T12:17:42.978Z,16.47
2018-01-19T12:20:11.424Z,15.67
2018-01-19T12:22:39.913Z,15.20
2018-01-19T12:25:08.296Z,16.90
2018-01-19T12:27:36.707Z,15.23
2018-01-19T12:30:05.104Z,15.73
2018-01-19T12:32:33.532Z,18.00
2018-01-19T12:35:01.888Z,16.23
2018-01-19T12:37:31.032Z,16.93
2018-01-19T12:39:59.498Z,17.13
2018-01-19T12:42:27.846Z,16.30
2018-01-19T12:44:57.166Z,16.93
2018-01-19T12:47:25.768Z,17.83
2018-01-19T12:49:54.128Z,16.90
2018-01-19T12:52:22.510Z,16.83
2018-01-19T12:54:50.991Z,16.23
2018-01-19T12:57:19.489Z,16.67
2018-01-19T12:59:47.859Z,17.07
2018-01-19T13:02:16.233Z,18.17
2018-01-19T13:04:44.597Z,16.83
2018-01-19T13:07:12.982Z,16.60
2018-01-19T13:09:41.372Z,17.10
2018-01-19T13:12:09.798Z,17.50
2018-01-19T13:14:39.063Z,16.70
2018-01-19T13:17:07.454Z,16.00
2018-01-19T13:19:35.893Z,15.47
2018-01-19T13:22:04.372Z,14.47
2018-01-19T13:24:32.764Z,15.00
2018-01-19T13:27:01.149Z,15.27
2018-01-19T13:29:29.530Z,12.97
2018-01-19T13:31:57.872Z,13.90
2018-01-19T13:34:27.026Z,14.27
2018-01-19T13:36:55.484Z,14.40
2018-01-19T13:39:23.857Z,14.30
2018-01-19T13:41:52.334Z,13.70
2018-01-19T13:44:20.759Z,12.63
2018-01-19T13:46:49.243Z,12.70
2018-01-19T13:49:17.636Z,12.40
2018-01-19T13:51:46.863Z,12.23
2018-01-19T13:54:15.236Z,12.17
2018-01-19T13:56:43.664Z,12.27
2018-01-19T13:59:12.102Z,12.53
2018-01-19T14:01:40.570Z,13.57
2018-01-19T14:04:08.954Z,12.73
2018-01-19T14:06:37.381Z,11.63
2018-01-19T14:09:05.843Z,11.53
2018-01-19T14:11:34.216Z,11.07
2018-01-19T14:14:02.571Z,11.50
2018-01-19T14:16:30.965Z,11.23
2018-01-19T14:18:59.340Z,12.03
2018-01-19T14:21:27.713Z,11.63
2018-01-19T14:23:56.104Z,10.63
2018-01-19T14:26:24.470Z,10.90
2018-01-19T14:28:52.934Z,11.30
2018-01-19T14:31:21.312Z,10.80
2018-01-19T14:33:50.440Z,9.70
2018-01-19T14:36:18.794Z,9.10
2018-01-19T14:38:47.192Z,9.60
2018-01-19T14:41:15.676Z,9.30
2018-01-19T14:43:44.136Z,9.10
2018-01-19T14:46:12.620Z,9.57
2018-01-19T14:48:41.053Z,9.90
2018-01-19T14:51:09.479Z,9.83
2018-01-19T14:53:37.852Z,9.03
2018-01-19T14:56:06.204Z,8.17
2018-01-19T14:58:35.487Z,8.37
2018-01-19T15:01:04.033Z,8.37
2018-01-19T15:03:32.519Z,8.17
2018-01-19T15:06:00.886Z,8.97
2018-01-19T15:08:29.352Z,10.23
2018-01-19T15:10:57.784Z,10.40
2018-01-19T15:13:26.219Z,11.93
2018-01-19T15:15:54.728Z,11.40
2018-01-19T15:18:23.124Z,12.10
2018-01-19T15:20:51.602Z,11.60
2018-01-19T15:23:20.147Z,12.50
2018-01-19T15:25:48.579Z,12.10
2018-01-19T15:28:17.765Z,11.77
2018-01-19T15:30:46.313Z,12.30
2018-01-19T15:33:14.844Z,11.50
2018-01-19T15:35:44.069Z,11.30
2018-01-19T15:38:12.570Z,11.10
2018-01-19T15:40:40.944Z,11.60
2018-01-19T15:43:09.375Z,11.43
2018-01-19T15:45:38.565Z,11.97
2018-01-19T15:48:06.941Z,10.47
2018-01-19T15:50:35.492Z,11.50
2018-01-19T15:53:04.009Z,11.37
2018-01-19T15:55:32.425Z,10.67
2018-01-19T15:58:00.838Z,9.67
2018-01-19T16:00:29.217Z,9.80
2018-01-19T16:02:57.714Z,9.37
2018-01-19T16:05:26.076Z,8.90
2018-01-19T16:07:54.465Z,8.33
2018-01-19T16:10:22.822Z,8.73
2018-01-19T16:12:51.229Z,8.87
2018-01-19T16:15:19.612Z,9.67
2018-01-19T16:17:48.023Z,9.50
2018-01-19T16:20:16.442Z,10.23
2018-01-19T16:22:44.812Z,9.50
2018-01-19T16:25:13.246Z,10.83
2018-01-19T16:27:42.399Z,10.63
2018-01-19T16:30:10.835Z,12.17
2018-01-19T16:32:39.972Z,11.97
2018-01-19T16:35:08.411Z,14.70
2018-01-19T16:37:36.811Z,14.53
2018-01-19T16:40:05.278Z,16.70
2018-01-19T16:42:33.793Z,17.50
2018-01-19T16:45:02.181Z,17.77
2018-01-19T16:47:30.555Z,18.07
2018-01-19T16:49:58.980Z,18.50
2018-01-19T16:52:28.187Z,19.43
2018-01-19T16:54:57.329Z,18.60
2018-01-19T16:57:25.804Z,19.00
2018-01-19T16:59:54.177Z,17.33
2018-01-19T17:02:22.615Z,18.13
2018-01-19T17:04:51.852Z,17.73
2018-01-19T17:07:20.223Z,18.07
2018-01-19T17:09:48.654Z,16.47
2018-01-19T17:12:17.141Z,16.40
2018-01-19T17:14:46.339Z,17.47
2018-01-19T17:17:14.760Z,16.33
2018-01-19T17:19:43.371Z,16.97
2018-01-19T17:22:11.925Z,17.40
2018-01-19T17:24:40.373Z,17.10
2018-01-19T17:27:09.548Z,18.00
2018-01-19T17:29:38.899Z,17.53
2018-01-19T17:32:07.401Z,18.03
2018-01-19T17:34:35.990Z,17.60
2018-01-19T17:37:04.469Z,17.47
2018-01-19T17:39:33.062Z,17.97
2018-01-19T17:42:01.440Z,16.47
2018-01-19T17:44:29.860Z,17.17
2018-01-19T17:46:59.017Z,17.90
2018-01-19T17:49:27.455Z,17.40
2018-01-19T17:51:55.883Z,17.23
2018-01-19T17:54:24.332Z,19.00
2018-01-19T17:56:52.715Z,16.83
2018-01-19T17:59:21.101Z,17.60
2018-01-19T18:01:49.461Z,19.60
2018-01-19T18:04:17.820Z,18.60
2018-01-19T18:06:47.039Z,16.57
2018-01-19T18:09:15.416Z,16.93
2018-01-19T18:11:43.808Z,16.67
2018-01-19T18:14:12.280Z,18.00
2018-01-19T18:16:40.691Z,19.83
2018-01-19T18:19:09.191Z,17.33
2018-01-19T18:21:38.421Z,17.23
2018-01-19T18:24:06.930Z,17.63
2018-01-19T18:26:35.316Z,17.00
2018-01-19T18:29:03.715Z,17.37
2018-01-19T18:31:32.856Z,15.23
2018-01-19T18:34:01.324Z,14.30
2018-01-19T18:36:29.793Z,15.47
2018-01-19T18:38:58.944Z,13.93
2018-01-19T18:41:27.363Z,13.33
2018-01-19T18:43:56.516Z,13.27
2018-01-19T18:46:24.981Z,12.77
2018-01-19T18:48:53.347Z,12.17
2018-01-19T18:51:21.857Z,12.50
2018-01-19T18:53:50.339Z,11.90
2018-01-19T18:56:18.861Z,11.63
2018-01-19T18:58:47.358Z,11.80
2018-01-19T19:01:16.586Z,12.00
2018-01-19T19:03:44.948Z,10.47
2018-01-19T19:06:14.135Z,11.10
2018-01-19T19:08:42.635Z,10.90
2018-01-19T19:11:11.125Z,9.33
2018-01-19T19:13:39.481Z,9.80
2018-01-19T19:16:08.674Z,9.93
2018-01-19T19:18:37.131Z,9.23
2018-01-19T19:21:05.507Z,10.83
2018-01-19T19:23:33.953Z,11.30
2018-01-19T19:26:02.420Z,12.37
2018-01-19T19:28:30.911Z,9.37
2018-01-19T19:30:59.409Z,7.50
2018-01-19T19:33:27.791Z,8.00
2018-01-19T19:35:56.229Z,7.40
2018-01-19T19:38:24.636Z,6.90
2018-01-19T19:40:53.044Z,7.07
2018-01-19T19:43:21.477Z,7.10
2018-01-19T19:45:49.935Z,6.87
2018-01-19T19:48:19.107Z,6.87
2018-01-19T19:50:48.280Z,7.70
2018-01-19T19:53:16.747Z,7.20
2018-01-19T19:55:45.175Z,7.57
2018-01-19T19:58:14.386Z,7.20
2018-01-19T20:00:42.783Z,7.60
2018-01-19T20:03:11.221Z,7.80
2018-01-19T20:05:40.353Z,8.80
2018-01-19T20:08:08.824Z,7.60
2018-01-19T20:10:37.275Z,8.70
2018-01-19T20:13:06.410Z,8.17
2018-01-19T20:15:34.967Z,9.07
2018-01-19T20:18:04.255Z,9.80
2018-01-19T20:20:33.447Z,10.37
2018-01-19T20:23:01.912Z,11.33
2018-01-19T20:25:30.411Z,12.70
2018-01-19T20:27:58.843Z,14.90
2018-01-19T20:30:27.284Z,15.17
2018-01-19T20:32:56.515Z,14.17
2018-01-19T20:35:24.922Z,15.40
2018-01-19T20:37:53.389Z,15.87
2018-01-19T20:40:21.753Z,14.00
2018-01-19T20:42:50.189Z,14.53
2018-01-19T20:45:19.433Z,15.10
2018-01-19T20:47:47.803Z,13.77
2018-01-19T20:50:16.276Z,14.90
2018-01-19T20:52:44.710Z,15.47
2018-01-19T20:55:13.080Z,14.73
2018-01-19T20:57:41.469Z,12.90
2018-01-19T21:00:09.869Z,15.43
2018-01-19T21:02:38.221Z,12.20
2018-01-19T21:05:06.609Z,12.37
2018-01-19T21:07:35.142Z,12.30
2018-01-19T21:10:03.537Z,11.70
2018-01-19T21:12:31.996Z,10.90
2018-01-19T21:15:00.582Z,11.87
2018-01-19T21:17:29.147Z,12.37
2018-01-19T21:19:57.907Z,12.37
2018-01-19T21:22:27.131Z,10.87
2018-01-19T21:24:56.348Z,10.90
2018-01-19T21:27:24.773Z,11.03
2018-01-19T21:29:53.205Z,10.57
2018-01-19T21:32:21.644Z,10.27
2018-01-19T21:34:50.076Z,9.73
2018-01-19T21:37:18.750Z,9.90
2018-01-19T21:39:47.199Z,9.00
2018-01-19T21:42:16.427Z,9.70
2018-01-19T21:44:44.930Z,8.53
2018-01-19T21:47:13.446Z,9.33
2018-01-19T21:49:41.954Z,9.60
2018-01-19T21:52:10.412Z,9.90
2018-01-19T21:54:38.832Z,9.77
2018-01-19T21:57:07.318Z,8.87
2018-01-19T21:59:35.793Z,9.70
2018-01-19T22:02:04.180Z,8.60
2018-01-19T22:04:32.566Z,9.90
2018-01-19T22:07:01.019Z,9.00
2018-01-19T22:09:29.407Z,8.80
2018-01-19T22:11:57.919Z,8.50
2018-01-19T22:14:26.382Z,9.00
2018-01-19T22:16:54.823Z,10.13
2018-01-19T22:19:24.139Z,9.97
2018-01-19T22:21:52.624Z,9.37
2018-01-19T22:24:21.093Z,9.60
2018-01-19T22:26:50.310Z,9.43
2018-01-19T22:29:18.671Z,9.23
2018-01-19T22:31:47.871Z,8.60
2018-01-19T22:34:16.324Z,9.97
2018-01-19T22:36:44.770Z,9.10
2018-01-19T22:39:13.384Z,8.70
2018-01-19T22:41:41.903Z,10.50
2018-01-19T22:44:10.375Z,11.10
2018-01-19T22:46:38.778Z,8.97
2018-01-19T22:49:07.206Z,10.27
2018-01-19T22:51:36.381Z,10.17
2018-01-19T22:54:04.810Z,11.13
2018-01-19T22:56:33.260Z,11.17
2018-01-19T22:59:01.629Z,9.80
2018-01-19T23:01:30.064Z,10.27
2018-01-19T23:03:58.495Z,9.00
2018-01-19T23:06:26.987Z,9.00
2018-01-19T23:08:56.127Z,10.57
2018-01-19T23:11:24.498Z,10.00
2018-01-19T23:13:52.869Z,10.10
2018-01-19T23:16:21.298Z,9.70
2018-01-19T23:18:49.699Z,10.17
2018-01-19T23:21:18.180Z,10.73
2018-01-19T23:23:47.541Z,10.43
2018-01-19T23:26:16.006Z,11.07
2018-01-19T23:28:44.463Z,11.40
2018-01-19T23:31:12.904Z,11.70
2018-01-19T23:33:41.363Z,10.73
2018-01-19T23:36:09.885Z,10.80
2018-01-19T23:38:39.045Z,10.90
2018-01-19T23:41:07.547Z,12.10
2018-01-19T23:43:36.071Z,11.00
2018-01-19T23:46:04.457Z,12.83
2018-01-19T23:48:32.886Z,10.43
2018-01-19T23:51:02.874Z,12.03
2018-01-19T23:53:31.264Z,11.77
2018-01-19T23:55:59.632Z,12.50
2018-01-19T23:58:28.058Z,11.23
